Time;durP1;ratioP1;P1;durP2;ratioP2;P2;SDS_P1;SDS_P2;PMS_P1;PMS_P2;Temp;Humidity;BMP_temperature;BMP_pressure;BME280_temperature;BME280_humidity;BME280_pressure;Samples;Min_cycle;Max_cycle;Signal;HPM_P1;HPM_P2
2021/06/05 00:01:36;;;;;;;4.68;2.80;;;23.60;52.00;;;;;;5051088;28;20029;-69
2021/06/05 00:04:02;;;;;;;5.85;3.10;;;23.60;51.90;;;;;;5055927;28;20043;-69
2021/06/05 00:06:29;;;;;;;5.55;3.45;;;23.60;52.00;;;;;;5056384;28;20096;-68
2021/06/05 00:08:55;;;;;;;5.65;3.00;;;23.60;51.90;;;;;;5056225;28;20028;-69
2021/06/05 00:11:24;;;;;;;5.53;3.20;;;23.60;52.00;;;;;;5056323;28;20384;-68
2021/06/05 00:13:55;;;;;;;8.05;3.00;;;23.60;52.00;;;;;;5054957;28;20063;-68
2021/06/05 00:16:27;;;;;;;5.53;2.80;;;23.50;52.00;;;;;;5056082;28;20033;-68
2021/06/05 00:18:53;;;;;;;6.38;3.47;;;23.50;52.10;;;;;;5055984;28;20064;-68
2021/06/05 00:21:22;;;;;;;4.63;3.00;;;23.60;52.20;;;;;;5056007;28;20064;-68
2021/06/05 00:23:48;;;;;;;5.20;3.13;;;23.50;52.10;;;;;;5056239;28;20017;-69
2021/06/05 00:26:15;;;;;;;5.55;3.47;;;23.50;52.10;;;;;;5055912;28;20079;-68
2021/06/05 00:28:40;;;;;;;5.47;3.10;;;23.50;52.20;;;;;;5055938;28;20555;-68
2021/06/05 00:31:06;;;;;;;5.75;3.03;;;23.50;52.20;;;;;;5054608;28;20108;-68
2021/06/05 00:33:32;;;;;;;5.20;2.88;;;23.50;52.20;;;;;;5055815;28;20025;-68
2021/06/05 00:35:58;;;;;;;5.40;3.45;;;23.50;52.20;;;;;;5055856;28;20476;-68
2021/06/05 00:38:24;;;;;;;5.18;3.00;;;23.50;52.20;;;;;;5055760;28;20021;-68
2021/06/05 00:40:55;;;;;;;5.18;3.25;;;23.50;52.30;;;;;;5056062;28;20037;-68
2021/06/05 00:43:25;;;;;;;5.45;3.08;;;23.50;52.30;;;;;;5054219;28;20049;-68
2021/06/05 00:45:51;;;;;;;6.22;2.97;;;23.50;52.30;;;;;;5055881;28;20387;-68
2021/06/05 00:48:18;;;;;;;5.07;2.95;;;23.50;52.30;;;;;;5055838;28;20025;-68
2021/06/05 00:50:46;;;;;;;7.65;3.40;;;23.50;52.30;;;;;;5055531;28;20040;-68
2021/06/05 00:53:15;;;;;;;5.13;2.97;;;23.50;52.40;;;;;;5055501;28;20027;-68
2021/06/05 00:55:43;;;;;;;5.35;3.05;;;23.40;52.50;;;;;;5055400;28;20033;-68
2021/06/05 00:58:09;;;;;;;6.07;3.45;;;23.40;52.50;;;;;;5055305;28;20074;-68
2021/06/05 01:00:48;;;;;;;5.70;3.47;;;23.40;52.50;;;;;;5055014;28;20546;-67
2021/06/05 01:03:15;;;;;;;6.15;3.53;;;23.40;52.40;;;;;;5055215;28;20162;-68
2021/06/05 01:05:43;;;;;;;4.78;2.92;;;23.40;52.50;;;;;;5055426;28;20040;-67
2021/06/05 01:08:21;;;;;;;5.72;2.90;;;23.40;52.50;;;;;;5055102;28;20040;-67
2021/06/05 01:10:52;;;;;;;6.60;3.67;;;23.40;52.50;;;;;;5055177;28;20082;-67
2021/06/05 01:13:24;;;;;;;5.70;3.42;;;23.40;52.60;;;;;;5054804;28;20037;-69
2021/06/05 01:15:55;;;;;;;5.38;3.47;;;23.40;52.60;;;;;;5055017;28;20025;-68
2021/06/05 01:18:35;;;;;;;5.57;3.00;;;23.40;52.70;;;;;;5055091;28;20527;-68
2021/06/05 01:21:23;;;;;;;5.38;3.00;;;23.40;52.60;;;;;;5054819;28;20481;-67
2021/06/05 01:24:02;;;;;;;5.93;3.60;;;23.40;52.50;;;;;;5053641;28;20017;-68
2021/06/05 01:26:30;;;;;;;4.85;2.90;;;23.30;52.60;;;;;;5054910;28;20464;-68
2021/06/05 01:29:14;;;;;;;5.78;3.50;;;23.40;52.70;;;;;;5054697;28;20025;-68
2021/06/05 01:31:44;;;;;;;5.55;3.25;;;23.40;52.70;;;;;;5054907;28;20131;-68
2021/06/05 01:34:11;;;;;;;5.18;3.58;;;23.30;52.80;;;;;;5054746;28;20388;-68
2021/06/05 01:36:45;;;;;;;5.45;3.33;;;23.30;52.80;;;;;;5054646;28;20025;-68
2021/06/05 01:39:13;;;;;;;5.40;3.22;;;23.30;52.80;;;;;;5054721;28;20033;-68
2021/06/05 01:41:42;;;;;;;5.22;3.33;;;23.30;52.90;;;;;;5054460;28;20130;-67
2021/06/05 01:44:09;;;;;;;5.55;3.42;;;23.30;52.90;;;;;;5054377;28;20041;-67
2021/06/05 01:46:38;;;;;;;5.30;3.47;;;23.30;52.90;;;;;;5054380;28;20025;-68
2021/06/05 01:49:05;;;;;;;6.50;3.30;;;23.30;52.90;;;;;;5054402;28;20028;-67
2021/06/05 01:51:31;;;;;;;5.70;3.55;;;23.30;53.00;;;;;;5054439;28;20052;-67
2021/06/05 01:54:07;;;;;;;5.82;3.35;;;23.30;53.10;;;;;;5054281;28;20491;-67
2021/06/05 01:56:48;;;;;;;5.75;3.38;;;23.30;53.10;;;;;;5054283;28;20025;-68
2021/06/05 01:59:15;;;;;;;5.05;3.17;;;23.20;53.20;;;;;;5054257;28;20075;-68
2021/06/05 02:01:42;;;;;;;5.53;3.17;;;23.20;53.20;;;;;;5054048;28;20120;-68
2021/06/05 02:04:09;;;;;;;4.90;3.15;;;23.20;53.30;;;;;;5054127;28;20446;-68
2021/06/05 02:06:35;;;;;;;5.72;3.53;;;23.20;53.30;;;;;;5052692;28;20111;-67
2021/06/05 02:09:04;;;;;;;6.78;3.50;;;23.20;53.30;;;;;;5053970;28;20117;-68
2021/06/05 02:11:32;;;;;;;5.53;3.05;;;23.20;53.30;;;;;;5053895;28;20029;-68
2021/06/05 02:14:20;;;;;;;6.28;3.35;;;23.20;53.30;;;;;;5054000;28;20503;-68
2021/06/05 02:16:49;;;;;;;5.75;3.47;;;23.20;53.30;;;;;;5041840;28;20142;-68
2021/06/05 02:19:29;;;;;;;6.60;3.60;;;23.20;53.30;;;;;;5053797;28;20021;-67
2021/06/05 02:21:57;;;;;;;4.85;3.10;;;23.20;53.30;;;;;;5053731;28;20465;-67
2021/06/05 02:24:29;;;;;;;5.70;3.10;;;23.20;53.30;;;;;;5053548;28;20021;-67
2021/06/05 02:26:57;;;;;;;5.13;3.08;;;23.10;53.30;;;;;;5053315;28;20032;-68
2021/06/05 02:29:27;;;;;;;6.45;3.85;;;23.10;53.40;;;;;;5052381;28;20372;-67
2021/06/05 02:31:53;;;;;;;5.68;3.35;;;23.10;53.50;;;;;;5053541;28;20380;-68
2021/06/05 02:34:22;;;;;;;5.53;3.28;;;23.10;53.50;;;;;;5053486;28;20082;-68
2021/06/05 02:36:50;;;;;;;5.35;3.25;;;23.10;53.50;;;;;;5052153;28;20024;-67
2021/06/05 02:39:20;;;;;;;8.15;3.58;;;23.10;53.40;;;;;;5053717;28;20051;-68
2021/06/05 02:41:48;;;;;;;5.38;3.22;;;23.10;53.40;;;;;;5053361;28;20037;-68
2021/06/05 02:44:15;;;;;;;6.65;3.85;;;23.10;53.50;;;;;;5051941;28;20511;-68
2021/06/05 02:46:42;;;;;;;6.75;3.88;;;23.10;53.50;;;;;;5053302;28;20029;-69
2021/06/05 02:49:27;;;;;;;5.20;3.15;;;23.10;53.50;;;;;;5053435;28;20033;-68
2021/06/05 02:52:00;;;;;;;5.25;3.38;;;23.10;53.60;;;;;;5053328;28;20021;-69
2021/06/05 02:54:26;;;;;;;7.07;3.67;;;23.10;53.50;;;;;;5053320;28;20025;-69
2021/06/05 02:56:53;;;;;;;6.40;3.60;;;23.10;53.50;;;;;;5053418;28;20410;-69
2021/06/05 02:59:20;;;;;;;6.10;3.80;;;23.10;53.50;;;;;;5051993;28;20028;-68
2021/06/05 03:01:46;;;;;;;6.13;3.90;;;23.10;53.50;;;;;;5053058;28;20538;-69
2021/06/05 03:04:12;;;;;;;7.85;4.22;;;23.10;53.60;;;;;;5053113;28;20033;-68
2021/06/05 03:06:38;;;;;;;5.93;3.58;;;23.10;53.60;;;;;;5051776;28;20454;-68
2021/06/05 03:09:05;;;;;;;6.22;3.70;;;23.00;53.70;;;;;;5053035;28;20046;-68
2021/06/05 03:11:31;;;;;;;5.72;3.47;;;23.00;53.70;;;;;;5052971;28;20036;-68
2021/06/05 03:13:57;;;;;;;5.93;3.75;;;23.00;53.70;;;;;;5051667;28;20025;-66
2021/06/05 03:16:23;;;;;;;6.38;3.72;;;23.00;53.70;;;;;;5052890;28;20384;-67
2021/06/05 03:18:49;;;;;;;5.88;3.85;;;23.00;53.70;;;;;;5052851;28;20094;-67
2021/06/05 03:21:18;;;;;;;6.10;3.83;;;23.00;53.70;;;;;;5052741;28;20069;-67
2021/06/05 03:23:48;;;;;;;6.00;3.75;;;23.00;53.70;;;;;;5052648;28;20021;-68
2021/06/05 03:26:15;;;;;;;6.35;3.83;;;23.00;53.70;;;;;;5051525;28;20056;-67
2021/06/05 03:28:41;;;;;;;5.93;3.38;;;23.00;53.70;;;;;;5052611;28;20043;-68
2021/06/05 03:31:08;;;;;;;5.95;4.00;;;23.00;53.70;;;;;;5051478;28;20033;-67
2021/06/05 03:33:34;;;;;;;5.82;3.75;;;23.00;53.80;;;;;;5052718;28;20044;-67
2021/06/05 03:36:00;;;;;;;5.15;3.30;;;23.00;53.80;;;;;;5052899;28;20033;-68
2021/06/05 03:38:27;;;;;;;5.88;3.65;;;23.00;53.70;;;;;;5056777;28;20029;-68
2021/06/05 03:40:53;;;;;;;6.45;3.90;;;23.00;53.70;;;;;;5057002;28;20029;-68
2021/06/05 03:43:20;;;;;;;5.88;3.80;;;23.00;53.70;;;;;;5056629;28;20045;-68
2021/06/05 03:45:45;;;;;;;5.25;3.35;;;23.00;53.70;;;;;;5056707;28;20040;-69
2021/06/05 03:48:11;;;;;;;6.30;3.70;;;23.00;53.80;;;;;;5056675;28;20041;-69
2021/06/05 03:50:44;;;;;;;7.07;4.18;;;23.00;53.70;;;;;;5056679;28;20029;-69
2021/06/05 03:53:11;;;;;;;7.70;3.97;;;23.00;53.70;;;;;;5055189;28;20036;-68
2021/06/05 03:55:36;;;;;;;6.45;4.05;;;23.00;53.70;;;;;;5056557;28;20419;-69
2021/06/05 03:58:02;;;;;;;6.35;3.97;;;23.00;53.70;;;;;;5056643;28;20021;-68
2021/06/05 04:00:33;;;;;;;6.65;4.25;;;23.00;53.70;;;;;;5056443;28;20090;-68
2021/06/05 04:02:59;;;;;;;6.10;4.03;;;22.90;53.80;;;;;;5056520;28;20075;-68
2021/06/05 04:05:25;;;;;;;6.63;4.07;;;23.00;53.80;;;;;;5056311;28;20029;-68
2021/06/05 04:07:52;;;;;;;6.30;4.35;;;23.00;53.80;;;;;;5056374;28;20108;-68
2021/06/05 04:10:18;;;;;;;5.75;3.55;;;23.00;53.70;;;;;;5054981;28;20048;-68
2021/06/05 04:12:44;;;;;;;6.47;3.88;;;23.00;53.80;;;;;;5056242;28;20052;-68
2021/06/05 04:15:12;;;;;;;5.63;3.75;;;23.00;53.70;;;;;;5054984;28;20061;-68
2021/06/05 04:17:38;;;;;;;6.00;3.90;;;23.00;53.80;;;;;;5056102;28;20017;-68
2021/06/05 04:20:06;;;;;;;5.85;3.80;;;22.90;53.70;;;;;;5055974;28;20036;-68
2021/06/05 04:22:31;;;;;;;6.55;3.88;;;23.00;53.80;;;;;;5055965;28;20032;-68
2021/06/05 04:24:57;;;;;;;7.40;4.43;;;23.00;53.70;;;;;;5056058;28;20108;-68
2021/06/05 04:27:23;;;;;;;6.47;4.18;;;23.00;53.70;;;;;;5055926;28;20464;-68
2021/06/05 04:29:48;;;;;;;6.25;4.03;;;23.00;53.70;;;;;;5056200;28;20017;-68
2021/06/05 04:32:14;;;;;;;6.07;3.80;;;23.00;53.70;;;;;;5054671;28;20025;-68
2021/06/05 04:34:40;;;;;;;6.35;4.03;;;23.00;53.70;;;;;;5055801;28;20021;-68
2021/06/05 04:37:05;;;;;;;6.43;3.95;;;22.90;53.70;;;;;;5037873;28;20048;-68
2021/06/05 04:39:31;;;;;;;6.45;4.00;;;23.00;53.70;;;;;;5054486;28;20021;-68
2021/06/05 04:41:57;;;;;;;6.40;4.15;;;22.90;53.80;;;;;;5055691;28;20036;-68
2021/06/05 04:44:23;;;;;;;6.28;4.00;;;22.90;53.70;;;;;;5055559;28;20051;-68
2021/06/05 04:46:48;;;;;;;5.95;3.67;;;23.00;53.80;;;;;;5054413;28;20029;-68
2021/06/05 04:49:14;;;;;;;7.07;4.18;;;23.00;53.80;;;;;;5054771;28;20032;-68
2021/06/05 04:51:40;;;;;;;6.78;3.65;;;22.90;53.80;;;;;;5055768;28;20104;-68
2021/06/05 04:54:07;;;;;;;7.00;4.57;;;22.90;53.70;;;;;;5055754;28;20021;-68
2021/06/05 04:56:44;;;;;;;6.03;3.67;;;23.00;53.80;;;;;;5055480;28;20029;-69
2021/06/05 04:59:12;;;;;;;7.00;4.47;;;22.90;53.70;;;;;;5055471;28;20113;-69
2021/06/05 05:01:38;;;;;;;7.07;3.88;;;22.90;53.80;;;;;;5055154;28;20033;-68
2021/06/05 05:04:04;;;;;;;5.53;3.95;;;22.90;53.70;;;;;;5055439;28;20025;-68
2021/06/05 05:06:30;;;;;;;6.93;4.30;;;22.90;53.80;;;;;;5055253;28;20091;-68
2021/06/05 05:08:56;;;;;;;8.63;4.35;;;22.90;53.80;;;;;;5055196;28;20477;-68
2021/06/05 05:11:22;;;;;;;6.53;4.22;;;22.90;53.80;;;;;;5055094;28;20021;-68
2021/06/05 05:13:48;;;;;;;6.43;4.03;;;22.90;53.80;;;;;;5055119;28;20090;-68
2021/06/05 05:16:15;;;;;;;6.63;4.00;;;22.90;53.70;;;;;;5054964;28;20100;-68
2021/06/05 05:18:53;;;;;;;6.07;3.97;;;22.90;53.80;;;;;;5055047;28;20025;-69
2021/06/05 05:21:19;;;;;;;6.72;4.10;;;22.90;53.80;;;;;;5053723;28;20037;-69
2021/06/05 05:23:45;;;;;;;6.80;4.30;;;22.90;53.90;;;;;;5055288;28;20017;-68
2021/06/05 05:26:11;;;;;;;6.00;3.90;;;22.90;53.90;;;;;;5054765;28;20032;-68
2021/06/05 05:28:38;;;;;;;6.97;4.05;;;22.90;53.90;;;;;;5054714;28;20025;-68
2021/06/05 05:31:08;;;;;;;7.25;4.20;;;22.90;53.90;;;;;;5054783;28;20036;-67
2021/06/05 05:33:38;;;;;;;5.95;3.80;;;22.90;54.00;;;;;;5054803;28;20020;-68
2021/06/05 05:36:07;;;;;;;6.60;4.35;;;22.90;53.90;;;;;;5054659;28;20029;-67
2021/06/05 05:38:33;;;;;;;6.60;3.90;;;22.90;53.90;;;;;;5054649;28;20025;-68
2021/06/05 05:40:58;;;;;;;7.05;4.30;;;22.90;54.00;;;;;;5054542;28;20091;-67
2021/06/05 05:43:24;;;;;;;7.65;4.03;;;22.90;54.00;;;;;;5054226;28;20052;-67
2021/06/05 05:45:50;;;;;;;7.47;4.38;;;22.90;53.90;;;;;;5054442;28;20036;-67
2021/06/05 05:48:16;;;;;;;6.22;3.60;;;22.90;54.00;;;;;;5054465;28;20021;-67
2021/06/05 05:50:44;;;;;;;6.28;3.90;;;22.90;53.90;;;;;;5054606;28;20067;-67
2021/06/05 05:53:10;;;;;;;6.97;4.10;;;22.90;54.00;;;;;;5054336;28;20035;-67
2021/06/05 05:55:36;;;;;;;7.03;4.15;;;22.90;54.00;;;;;;5054264;28;20027;-67
2021/06/05 05:58:10;;;;;;;5.85;3.67;;;22.90;53.90;;;;;;5054224;28;20033;-68
2021/06/05 06:00:42;;;;;;;6.15;4.07;;;22.90;54.00;;;;;;5053053;28;20104;-68
2021/06/05 06:03:08;;;;;;;5.88;3.80;;;22.90;53.90;;;;;;5054176;28;20491;-67
2021/06/05 06:05:35;;;;;;;6.55;4.20;;;22.90;53.90;;;;;;5054260;28;20025;-67
2021/06/05 06:08:01;;;;;;;6.88;4.13;;;22.90;53.90;;;;;;5054167;28;20094;-67
2021/06/05 06:10:27;;;;;;;7.93;4.05;;;22.90;53.90;;;;;;5053947;28;20537;-68
2021/06/05 06:12:53;;;;;;;7.20;4.55;;;22.90;53.90;;;;;;5053873;28;20025;-67
2021/06/05 06:15:22;;;;;;;7.60;4.68;;;22.90;53.90;;;;;;5054042;28;20036;-68
2021/06/05 06:17:49;;;;;;;6.78;4.25;;;22.90;53.90;;;;;;5053710;28;20507;-67
2021/06/05 06:20:19;;;;;;;7.03;4.53;;;22.90;53.90;;;;;;5053702;28;20041;-67
2021/06/05 06:22:44;;;;;;;8.13;4.38;;;22.90;53.90;;;;;;5054257;28;20025;-67
2021/06/05 06:25:12;;;;;;;6.10;4.13;;;22.90;54.00;;;;;;5053646;28;20029;-68
2021/06/05 06:27:38;;;;;;;5.60;3.65;;;22.90;54.10;;;;;;5053656;28;20021;-67
2021/06/05 06:30:06;;;;;;;8.20;5.15;;;22.90;54.00;;;;;;5053594;28;20381;-67
2021/06/05 06:32:31;;;;;;;6.25;4.13;;;22.90;54.10;;;;;;5053862;28;20021;-67
2021/06/05 06:34:57;;;;;;;7.15;4.68;;;22.90;54.10;;;;;;5053478;28;20036;-68
2021/06/05 06:37:22;;;;;;;7.18;4.40;;;22.90;54.10;;;;;;5053515;28;20067;-67
2021/06/05 06:39:48;;;;;;;6.78;4.25;;;22.90;54.10;;;;;;5053448;28;20549;-68
2021/06/05 06:42:13;;;;;;;7.28;4.43;;;22.90;54.10;;;;;;5053299;28;20492;-68
2021/06/05 06:44:39;;;;;;;7.20;4.60;;;22.90;54.00;;;;;;5053167;28;20090;-69
2021/06/05 06:47:06;;;;;;;6.72;4.47;;;22.90;54.00;;;;;;5053612;28;20025;-68
2021/06/05 06:49:32;;;;;;;5.93;4.07;;;22.90;54.00;;;;;;5052526;28;20066;-68
2021/06/05 06:51:57;;;;;;;7.65;5.00;;;22.90;54.10;;;;;;5052964;28;20108;-67
2021/06/05 06:54:23;;;;;;;7.97;4.80;;;22.90;54.10;;;;;;5053205;28;20451;-69
2021/06/05 06:56:49;;;;;;;7.45;5.03;;;22.90;54.20;;;;;;5053046;28;20021;-68
2021/06/05 06:59:15;;;;;;;6.95;4.82;;;22.90;54.20;;;;;;5051680;28;20140;-69
2021/06/05 07:01:41;;;;;;;7.97;5.00;;;22.90;54.20;;;;;;5051749;28;20045;-68
2021/06/05 07:04:06;;;;;;;8.98;4.75;;;22.90;54.20;;;;;;5052973;28;20032;-69
2021/06/05 07:06:33;;;;;;;7.85;4.65;;;23.00;54.20;;;;;;5053156;28;20021;-68
2021/06/05 07:08:59;;;;;;;8.40;5.68;;;22.90;54.30;;;;;;5051672;28;20032;-68
2021/06/05 07:11:30;;;;;;;7.78;4.93;;;22.90;54.20;;;;;;5052893;28;20029;-68
2021/06/05 07:13:58;;;;;;;6.95;4.72;;;22.90;54.20;;;;;;5053008;28;20023;-68
2021/06/05 07:16:25;;;;;;;7.97;5.03;;;22.90;54.30;;;;;;5052751;28;20053;-67
2021/06/05 07:18:50;;;;;;;7.85;5.22;;;22.90;54.30;;;;;;5052891;28;20025;-67
2021/06/05 07:21:17;;;;;;;7.53;5.15;;;22.90;54.20;;;;;;5052650;28;20033;-66
2021/06/05 07:23:43;;;;;;;7.32;5.13;;;22.90;54.30;;;;;;5052758;28;20028;-67
2021/06/05 07:26:13;;;;;;;9.50;5.18;;;22.90;54.30;;;;;;5052712;28;20468;-67
2021/06/05 07:28:43;;;;;;;9.02;6.05;;;22.90;54.30;;;;;;5052948;28;20033;-68
2021/06/05 07:31:11;;;;;;;9.02;4.85;;;22.90;54.30;;;;;;5053274;28;20056;-68
2021/06/05 07:33:37;;;;;;;7.60;5.28;;;22.90;54.30;;;;;;5053214;28;20080;-68
2021/06/05 07:36:04;;;;;;;8.18;5.28;;;22.90;54.30;;;;;;5052647;28;20021;-68
2021/06/05 07:38:30;;;;;;;7.75;5.07;;;22.90;54.30;;;;;;5052527;28;20504;-68
2021/06/05 07:40:57;;;;;;;7.47;5.45;;;22.90;54.30;;;;;;5052446;28;20041;-67
2021/06/05 07:43:27;;;;;;;9.55;5.20;;;23.00;54.40;;;;;;5052405;28;20045;-68
2021/06/05 07:45:54;;;;;;;8.60;5.07;;;23.00;54.30;;;;;;5052642;28;20029;-68
2021/06/05 07:48:21;;;;;;;8.75;5.65;;;23.00;54.40;;;;;;5051174;28;20392;-67
2021/06/05 07:50:46;;;;;;;9.15;5.38;;;23.00;54.40;;;;;;5052775;28;20033;-67
2021/06/05 07:53:12;;;;;;;9.02;6.00;;;23.00;54.30;;;;;;5052470;28;20017;-68
2021/06/05 07:55:39;;;;;;;7.63;5.18;;;23.00;54.40;;;;;;5052604;28;20033;-68
2021/06/05 07:58:05;;;;;;;8.57;5.65;;;23.00;54.40;;;;;;5052424;28;20021;-67
2021/06/05 08:00:33;;;;;;;7.85;5.82;;;23.00;54.40;;;;;;5051113;28;20029;-69
2021/06/05 08:02:59;;;;;;;7.90;5.15;;;23.00;54.30;;;;;;5052634;28;20021;-68
2021/06/05 08:05:24;;;;;;;10.63;5.75;;;23.00;54.40;;;;;;5052433;28;20025;-68
2021/06/05 08:07:50;;;;;;;8.30;5.35;;;23.00;54.40;;;;;;5052288;28;20040;-68
2021/06/05 08:10:19;;;;;;;9.65;5.38;;;23.00;54.40;;;;;;5052191;28;20033;-68
2021/06/05 08:12:45;;;;;;;8.43;5.68;;;23.00;54.40;;;;;;5051072;28;20032;-68
2021/06/05 08:15:15;;;;;;;8.23;5.65;;;23.00;54.40;;;;;;5051423;28;20033;-68
2021/06/05 08:17:42;;;;;;;7.70;5.47;;;23.00;54.40;;;;;;5052982;28;20100;-67
2021/06/05 08:20:11;;;;;;;9.10;5.72;;;23.00;54.50;;;;;;5052978;28;20029;-68
2021/06/05 08:22:37;;;;;;;8.05;5.70;;;23.00;54.50;;;;;;5056793;28;20106;-67
2021/06/05 08:25:05;;;;;;;8.63;5.97;;;23.00;54.40;;;;;;5072061;28;20029;-67
2021/06/05 08:27:31;;;;;;;8.27;5.85;;;23.00;54.40;;;;;;5068258;28;20108;-67
2021/06/05 08:29:57;;;;;;;8.88;5.47;;;23.00;54.40;;;;;;5057603;28;20063;-68
2021/06/05 08:32:22;;;;;;;8.98;5.82;;;23.00;54.40;;;;;;5056452;28;20529;-67
2021/06/05 08:34:48;;;;;;;9.43;6.28;;;23.00;54.40;;;;;;5055822;28;20476;-67
2021/06/05 08:37:13;;;;;;;9.98;6.20;;;23.00;54.40;;;;;;5056623;28;20054;-67
2021/06/05 08:39:39;;;;;;;9.27;6.25;;;23.00;54.40;;;;;;5056412;28;20358;-68
2021/06/05 08:42:07;;;;;;;9.38;5.75;;;23.00;54.40;;;;;;5055962;28;20063;-68
2021/06/05 08:44:38;;;;;;;8.50;5.95;;;23.00;54.50;;;;;;5056366;28;20045;-68
2021/06/05 08:47:06;;;;;;;10.70;6.38;;;23.00;54.40;;;;;;5055931;28;20073;-67
2021/06/05 08:49:36;;;;;;;9.48;6.47;;;23.00;54.50;;;;;;5054707;28;20127;-68
2021/06/05 08:52:17;;;;;;;9.88;6.47;;;23.00;54.50;;;;;;5055717;28;20036;-67
2021/06/05 08:54:57;;;;;;;9.60;6.10;;;23.00;54.30;;;;;;5056393;28;20025;-68
2021/06/05 08:57:32;;;;;;;8.43;5.95;;;23.00;54.40;;;;;;5059924;28;20025;-68
2021/06/05 09:00:06;;;;;;;8.98;6.40;;;23.10;54.40;;;;;;5059514;28;20028;-68
2021/06/05 09:02:32;;;;;;;9.40;6.38;;;23.10;54.50;;;;;;5060516;28;20047;-68
2021/06/05 09:04:59;;;;;;;8.15;6.03;;;23.10;54.40;;;;;;5064739;28;20025;-67
2021/06/05 09:07:25;;;;;;;9.85;5.82;;;23.10;54.40;;;;;;5064253;28;20115;-68
2021/06/05 09:09:52;;;;;;;8.95;6.25;;;23.10;54.40;;;;;;5060364;28;20032;-68
2021/06/05 09:12:19;;;;;;;9.85;6.90;;;23.10;54.40;;;;;;5062035;28;20385;-67
2021/06/05 09:14:47;;;;;;;8.30;6.32;;;23.10;54.40;;;;;;5061782;28;20032;-68
2021/06/05 09:17:20;;;;;;;9.30;6.70;;;23.10;54.40;;;;;;5061935;28;20013;-67
2021/06/05 09:20:13;;;;;;;9.43;6.70;;;23.10;54.40;;;;;;5058986;28;20055;-68
2021/06/05 09:22:44;;;;;;;9.52;6.70;;;23.20;54.40;;;;;;5060215;28;20032;-68
2021/06/05 09:25:21;;;;;;;8.50;5.95;;;23.10;54.40;;;;;;5059493;28;20333;-67
2021/06/05 09:27:47;;;;;;;8.60;6.35;;;23.20;54.30;;;;;;5058162;28;20036;-67
2021/06/05 09:30:34;;;;;;;8.90;6.38;;;23.20;54.30;;;;;;5056692;28;20487;-67
2021/06/05 09:33:06;;;;;;;9.30;6.45;;;23.20;54.30;;;;;;5054906;28;20049;-68
2021/06/05 09:35:42;;;;;;;9.40;6.10;;;23.20;54.20;;;;;;5054610;28;20438;-68
2021/06/05 09:38:13;;;;;;;9.18;6.38;;;23.20;54.30;;;;;;5054774;28;20033;-68
2021/06/05 09:40:38;;;;;;;9.32;6.50;;;23.20;54.30;;;;;;5053539;28;20028;-68
2021/06/05 09:43:10;;;;;;;9.90;5.93;;;23.20;54.30;;;;;;5054910;28;20072;-67
2021/06/05 09:46:01;;;;;;;11.52;7.63;;;23.20;54.30;;;;;;5059122;28;20021;-67
2021/06/05 09:48:39;;;;;;;9.35;6.80;;;23.20;54.40;;;;;;5055245;28;20021;-67
2021/06/05 09:51:25;;;;;;;9.75;6.30;;;23.20;54.40;;;;;;5055095;28;20025;-67
2021/06/05 09:54:08;;;;;;;8.88;6.63;;;23.20;54.50;;;;;;5047441;28;20033;-67
2021/06/05 09:56:46;;;;;;;10.02;6.45;;;23.20;54.50;;;;;;5054621;28;20108;-67
2021/06/05 09:59:23;;;;;;;9.68;6.90;;;23.10;54.50;;;;;;5054368;28;20040;-67
2021/06/05 10:02:02;;;;;;;9.98;6.88;;;23.10;54.60;;;;;;5054574;28;20117;-68
2021/06/05 10:04:30;;;;;;;8.82;6.57;;;23.10;54.50;;;;;;5054493;28;20025;-68
2021/06/05 10:06:58;;;;;;;9.88;7.35;;;23.10;54.60;;;;;;5053989;28;20033;-67
2021/06/05 10:09:26;;;;;;;10.85;6.82;;;23.10;54.60;;;;;;5054206;28;20116;-67
2021/06/05 10:12:09;;;;;;;9.02;6.63;;;23.10;54.60;;;;;;5054286;28;20434;-68
2021/06/05 10:15:06;;;;;;;9.65;7.18;;;23.10;54.60;;;;;;5053955;28;20017;-67
2021/06/05 10:17:56;;;;;;;10.45;6.80;;;23.10;54.70;;;;;;5054073;28;20029;-69
2021/06/05 10:20:53;;;;;;;10.15;7.15;;;23.10;54.60;;;;;;5053579;28;20036;-69
2021/06/05 10:23:58;;;;;;;9.68;6.70;;;23.10;54.60;;;;;;5053775;28;20108;-68
2021/06/05 10:26:38;;;;;;;11.60;7.20;;;23.10;54.60;;;;;;5032411;28;20033;-68
2021/06/05 10:29:23;;;;;;;11.07;7.25;;;23.10;54.70;;;;;;5053673;28;20033;-68
2021/06/05 10:31:49;;;;;;;10.27;6.53;;;23.10;54.70;;;;;;5053801;28;20393;-69
2021/06/05 10:34:27;;;;;;;10.10;7.10;;;23.10;54.70;;;;;;5054048;28;20024;-68
2021/06/05 10:36:54;;;;;;;11.77;8.15;;;23.10;54.80;;;;;;5054042;28;20033;-69
2021/06/05 10:39:29;;;;;;;11.23;7.32;;;23.00;54.70;;;;;;5057057;28;20035;-68
2021/06/05 10:42:21;;;;;;;10.18;7.05;;;23.10;54.70;;;;;;5056438;28;20060;-69
2021/06/05 10:44:46;;;;;;;13.15;8.07;;;23.10;54.60;;;;;;5053688;28;20047;-69
2021/06/05 10:47:29;;;;;;;9.82;6.97;;;23.10;54.70;;;;;;5055144;28;20025;-68
2021/06/05 10:50:14;;;;;;;12.20;7.40;;;23.10;54.80;;;;;;5054245;28;20017;-69
2021/06/05 10:52:49;;;;;;;9.73;6.95;;;23.10;54.70;;;;;;5053663;28;20104;-68
2021/06/05 10:55:23;;;;;;;10.88;7.85;;;23.00;54.80;;;;;;5053658;28;20028;-69
2021/06/05 10:58:07;;;;;;;10.13;7.60;;;23.10;54.80;;;;;;5053819;28;20025;-68
2021/06/05 11:00:42;;;;;;;12.70;7.95;;;23.10;54.80;;;;;;5053544;28;20021;-69
2021/06/05 11:03:22;;;;;;;11.05;7.65;;;23.10;54.70;;;;;;5053419;28;20496;-69
2021/06/05 11:06:06;;;;;;;9.15;6.78;;;23.10;54.80;;;;;;5053655;28;20464;-69
2021/06/05 11:08:42;;;;;;;9.10;6.80;;;23.10;54.70;;;;;;5053429;28;20029;-69
2021/06/05 11:11:08;;;;;;;9.80;6.82;;;23.10;54.70;;;;;;5051977;28;20483;-69
2021/06/05 11:13:36;;;;;;;9.43;6.88;;;23.10;54.80;;;;;;5053320;28;20021;-69
2021/06/05 11:16:05;;;;;;;11.07;7.47;;;23.10;54.80;;;;;;5054867;28;20067;-69
2021/06/05 11:18:30;;;;;;;10.07;7.18;;;23.10;54.80;;;;;;5058455;28;20029;-68
2021/06/05 11:20:58;;;;;;;9.77;7.18;;;23.10;54.80;;;;;;5053112;28;20384;-69
2021/06/05 11:23:25;;;;;;;10.48;7.47;;;23.10;54.80;;;;;;5053018;28;20041;-68
2021/06/05 11:25:53;;;;;;;9.68;6.93;;;23.10;54.80;;;;;;5052317;28;20491;-69
2021/06/05 11:28:30;;;;;;;10.18;7.15;;;23.10;54.80;;;;;;5059711;28;20037;-69
2021/06/05 11:30:56;;;;;;;11.85;7.88;;;23.10;54.70;;;;;;5061847;28;20025;-69
2021/06/05 11:33:48;;;;;;;10.40;7.10;;;23.20;54.70;;;;;;5053949;28;20033;-69
2021/06/05 11:36:35;;;;;;;11.43;7.57;;;23.20;54.80;;;;;;5049272;28;20025;-69
2021/06/05 11:39:01;;;;;;;11.07;7.72;;;23.20;54.70;;;;;;5053915;28;20171;-69
2021/06/05 11:41:40;;;;;;;10.45;7.45;;;23.20;54.60;;;;;;5053336;28;20120;-68
2021/06/05 11:44:20;;;;;;;10.20;7.30;;;23.20;54.60;;;;;;5052955;28;20480;-68
2021/06/05 11:46:48;;;;;;;10.52;7.28;;;23.20;54.70;;;;;;5053041;28;20036;-68
2021/06/05 11:49:50;;;;;;;11.18;7.60;;;23.20;54.70;;;;;;5053281;28;20025;-68
2021/06/05 11:52:33;;;;;;;10.60;7.63;;;23.20;54.70;;;;;;5058736;28;20025;-68
2021/06/05 11:55:22;;;;;;;10.57;7.43;;;23.20;54.60;;;;;;5054088;28;20123;-68
2021/06/05 11:58:28;;;;;;;10.32;7.40;;;23.20;54.70;;;;;;5054321;28;20535;-69
2021/06/05 12:01:22;;;;;;;10.63;7.57;;;23.20;54.70;;;;;;5057412;28;20047;-68
2021/06/05 12:03:57;;;;;;;11.15;7.07;;;23.20;54.70;;;;;;5061497;28;20439;-68
2021/06/05 12:06:26;;;;;;;9.90;7.30;;;23.20;54.80;;;;;;5057715;28;20029;-68
2021/06/05 12:09:16;;;;;;;10.48;7.43;;;23.20;54.70;;;;;;5056796;28;20487;-71
2021/06/05 12:11:46;;;;;;;10.32;6.80;;;23.20;54.60;;;;;;5055423;28;20033;-68
2021/06/05 12:17:07;;;;;;;10.55;7.95;;;23.20;54.60;;;;;;5051211;28;20037;-68
2021/06/05 12:19:35;;;;;;;10.38;7.25;;;23.20;54.70;;;;;;5056416;28;20499;-69
2021/06/05 12:22:12;;;;;;;11.23;7.43;;;23.20;54.70;;;;;;5054939;28;20068;-68
2021/06/05 12:24:40;;;;;;;9.77;7.60;;;23.20;54.60;;;;;;5056193;28;20024;-68
2021/06/05 12:27:07;;;;;;;11.15;7.85;;;23.30;54.70;;;;;;5056597;28;20037;-69
2021/06/05 12:29:37;;;;;;;9.18;6.60;;;23.20;54.60;;;;;;5055948;28;20096;-69
2021/06/05 12:32:16;;;;;;;10.90;7.50;;;23.20;54.60;;;;;;5055912;28;20029;-68
2021/06/05 12:34:43;;;;;;;10.07;7.50;;;23.30;54.60;;;;;;5055979;28;20063;-68
2021/06/05 12:37:21;;;;;;;10.90;7.75;;;23.30;54.50;;;;;;5056063;28;20029;-68
2021/06/05 12:39:53;;;;;;;10.85;7.85;;;23.30;54.50;;;;;;5055635;28;20032;-69
2021/06/05 12:42:36;;;;;;;10.43;7.38;;;23.30;54.60;;;;;;5055082;28;20032;-68
2021/06/05 12:45:15;;;;;;;10.52;7.63;;;23.30;54.60;;;;;;5055602;28;20373;-68
2021/06/05 12:47:51;;;;;;;11.25;8.05;;;23.30;54.50;;;;;;5055488;28;20062;-69
2021/06/05 12:50:21;;;;;;;9.20;7.18;;;23.30;54.70;;;;;;5056016;28;20056;-69
2021/06/05 12:52:49;;;;;;;9.55;7.50;;;23.30;54.60;;;;;;5055937;28;20036;-68
2021/06/05 12:55:33;;;;;;;9.98;7.72;;;23.30;54.60;;;;;;5055573;28;20044;-68
2021/06/05 12:58:09;;;;;;;11.85;7.90;;;23.30;54.60;;;;;;5055875;28;20095;-68
2021/06/05 13:00:48;;;;;;;10.00;6.95;;;23.20;54.60;;;;;;5055991;28;20033;-69
2021/06/05 13:03:13;;;;;;;9.50;7.18;;;23.30;54.80;;;;;;5055964;28;20021;-68
2021/06/05 13:05:43;;;;;;;9.98;7.25;;;23.20;54.70;;;;;;5055559;28;20040;-68